In Rescue
 
Open Full Screen Window  High Contrast Mode
Wind Gusting 00 knots
04
March 01, 2024 2:55 PM EST
Weather Information
Wind Direction
  VRB °
Wind Speed
  04 kt (5 mph)
Wind Gust
  00 kt (0 mph)
Altimeter
30.22 in
Visibility
10 SM
Temperature
05° C
41° F
Dewpoint
-00° C
32° F
Humidity
70%
Sky Condition
Broken @ 5,000 ft
VFR

METAR KGDK 011955Z AUTO VRB04KT 10SM BKN050 05/M00 A3022 RMK AO2

FAA Disclaimer: The data displayed is for advisory purposes only and is not to be used for flight planning or operations.